Time;durP1;ratioP1;P1;durP2;ratioP2;P2;SDS_P1;SDS_P2;PMS_P1;PMS_P2;Temp;Humidity;BMP_temperature;BMP_pressure;BME280_temperature;BME280_humidity;BME280_pressure;Samples;Min_cycle;Max_cycle;Signal;HPM_P1;HPM_P2
2022/02/10 00:05:50;;;;;;;9.07;6.67;;;6.90;99.90;;;;;;5005961;28;20569;-76
2022/02/10 00:13:24;;;;;;;12.10;7.40;;;6.90;99.90;;;;;;5044111;28;20474;-77
2022/02/10 00:14:47;;;;;;;12.00;7.63;;;6.90;99.90;;;;;;5053488;28;20486;-77
2022/02/10 00:17:30;;;;;;;12.37;8.70;;;6.90;99.90;;;;;;5054813;28;20464;-77
2022/02/10 00:20:13;;;;;;;11.13;7.73;;;6.90;99.90;;;;;;5050174;28;20543;-77
2022/02/10 00:23:03;;;;;;;12.70;8.73;;;6.90;99.90;;;;;;5053747;28;20454;-76
2022/02/10 00:34:15;;;;;;;12.90;8.40;;;6.90;99.90;;;;;;5048033;28;20469;-76
2022/02/10 00:36:58;;;;;;;11.73;7.60;;;7.00;99.90;;;;;;5055713;28;20477;-77
2022/02/10 00:39:47;;;;;;;13.67;8.77;;;7.00;99.90;;;;;;5057675;28;20589;-77
2022/02/10 00:42:17;;;;;;;12.77;9.17;;;7.00;99.90;;;;;;5051620;28;20481;-76
2022/02/10 00:44:50;;;;;;;16.40;9.23;;;7.10;99.90;;;;;;5049665;28;20568;-75
2022/02/10 00:47:23;;;;;;;12.00;8.30;;;7.10;99.90;;;;;;5053997;28;20559;-77
2022/02/10 00:49:57;;;;;;;17.77;9.20;;;7.10;99.90;;;;;;5054504;28;20513;-76
2022/02/10 00:52:25;;;;;;;17.60;9.50;;;7.10;99.90;;;;;;5054002;28;20501;-76
2022/02/10 00:54:57;;;;;;;15.77;10.67;;;7.10;99.90;;;;;;5048857;28;20522;-76
2022/02/10 00:57:27;;;;;;;14.07;9.10;;;7.10;99.90;;;;;;5048946;28;20469;-76
2022/02/10 01:00:19;;;;;;;19.57;9.70;;;7.10;99.90;;;;;;5045368;28;20477;-75
2022/02/10 01:12:01;;;;;;;15.30;9.23;;;7.10;99.90;;;;;;5045814;28;20484;-75
2022/02/10 01:24:27;;;;;;;13.50;9.53;;;7.10;99.90;;;;;;5045428;28;20618;-77
2022/02/10 01:31:19;;;;;;;17.77;11.60;;;7.10;99.90;;;;;;5054517;28;20511;-76
2022/02/10 01:33:49;;;;;;;18.50;11.50;;;7.10;99.90;;;;;;5051088;28;20464;-76
2022/02/10 01:36:18;;;;;;;19.73;12.40;;;7.10;99.90;;;;;;5052364;28;20481;-77
2022/02/10 01:38:46;;;;;;;14.93;10.40;;;7.10;99.90;;;;;;5052570;28;20491;-77
2022/02/10 01:58:38;;;;;;;16.17;10.33;;;7.20;99.90;;;;;;5049618;28;20476;-77
2022/02/10 02:03:54;;;;;;;18.27;10.50;;;7.20;99.90;;;;;;5051543;28;20472;-77
2022/02/10 02:06:28;;;;;;;15.30;10.80;;;7.20;99.90;;;;;;5052167;28;20539;-77
2022/02/10 02:09:02;;;;;;;20.40;11.27;;;7.20;99.90;;;;;;5051572;28;20517;-76
2022/02/10 02:11:30;;;;;;;18.97;10.10;;;7.20;99.90;;;;;;5055793;28;20559;-78
2022/02/10 02:14:00;;;;;;;18.20;11.60;;;7.20;99.90;;;;;;5053652;28;20523;-76
2022/02/10 02:16:28;;;;;;;19.00;11.97;;;7.20;99.90;;;;;;5055882;28;20591;-77
2022/02/10 02:18:56;;;;;;;18.90;11.90;;;7.20;99.90;;;;;;5055149;28;20555;-76
2022/02/10 02:21:25;;;;;;;16.40;10.93;;;7.20;99.90;;;;;;5056021;28;20481;-76
2022/02/10 02:23:59;;;;;;;16.30;11.83;;;7.20;99.90;;;;;;5061549;28;20467;-76
2022/02/10 02:26:27;;;;;;;15.30;11.57;;;7.20;99.90;;;;;;5061537;28;20467;-77
2022/02/10 02:29:00;;;;;;;15.33;11.10;;;7.20;99.90;;;;;;5063355;28;20492;-77
2022/02/10 02:31:37;;;;;;;18.40;12.10;;;7.20;99.90;;;;;;5059728;28;20490;-76
2022/02/10 03:04:57;;;;;;;19.73;13.03;;;7.30;99.90;;;;;;5058394;28;20626;-76
2022/02/10 03:07:37;;;;;;;23.67;12.80;;;7.30;99.90;;;;;;5057787;28;20568;-76
2022/02/10 03:12:54;;;;;;;16.67;11.70;;;7.30;99.90;;;;;;5045175;28;20464;-76
2022/02/10 03:15:30;;;;;;;20.40;11.33;;;7.30;99.90;;;;;;5055121;28;20463;-76
2022/02/10 03:20:57;;;;;;;19.03;11.63;;;7.40;99.90;;;;;;5049289;28;20494;-76
2022/02/10 04:08:53;;;;;;;10.47;6.20;;;7.00;99.90;;;;;;5111560;27;20593;-78
2022/02/10 04:11:45;;;;;;;8.93;5.57;;;7.00;99.90;;;;;;5107385;28;20536;-77
2022/02/10 04:14:21;;;;;;;7.30;6.10;;;7.00;99.90;;;;;;5110734;28;20471;-75
2022/02/10 04:17:02;;;;;;;9.83;6.43;;;7.00;99.90;;;;;;5113456;27;20484;-78
2022/02/10 04:19:52;;;;;;;11.20;6.00;;;7.00;99.90;;;;;;5111145;28;20469;-76
2022/02/10 04:22:27;;;;;;;10.57;5.90;;;7.00;99.90;;;;;;5108487;28;20476;-77
2022/02/10 04:25:23;;;;;;;11.33;6.70;;;7.00;99.90;;;;;;5108662;28;20496;-76
2022/02/10 04:28:11;;;;;;;8.70;5.90;;;7.00;99.90;;;;;;5109680;28;20469;-76
2022/02/10 04:31:02;;;;;;;9.20;6.23;;;7.00;99.90;;;;;;5109984;28;20476;-76
2022/02/10 04:53:51;;;;;;;11.17;5.97;;;7.00;99.90;;;;;;5111193;27;20457;-76
2022/02/10 04:56:29;;;;;;;7.90;6.17;;;7.00;99.90;;;;;;5110220;28;20473;-76
2022/02/10 04:59:17;;;;;;;10.17;5.83;;;7.00;99.90;;;;;;5111627;28;20610;-76
2022/02/10 05:02:03;;;;;;;8.80;6.23;;;7.00;99.90;;;;;;5111509;27;21015;-76
2022/02/10 05:04:55;;;;;;;10.40;6.43;;;7.00;99.90;;;;;;5107064;28;20933;-75
2022/02/10 05:07:55;;;;;;;6.67;5.13;;;7.00;99.90;;;;;;5110334;27;20534;-76
2022/02/10 05:14:31;;;;;;;8.57;6.10;;;7.00;99.90;;;;;;5110708;28;20466;-76
2022/02/10 05:16:41;;;;;;;9.07;6.07;;;7.00;99.90;;;;;;5107379;28;20520;-75
2022/02/10 05:22:13;;;;;;;11.70;5.50;;;7.00;99.90;;;;;;5084241;28;20491;-75
2022/02/10 05:24:48;;;;;;;8.77;6.10;;;7.00;99.90;;;;;;5097579;28;20470;-76
2022/02/10 05:35:52;;;;;;;9.23;5.90;;;7.00;99.90;;;;;;5120398;27;20574;-77
2022/02/10 05:38:26;;;;;;;8.47;5.20;;;7.00;99.90;;;;;;5114115;28;20493;-77
2022/02/10 05:43:54;;;;;;;11.50;6.50;;;7.00;99.90;;;;;;5118523;28;20491;-75
2022/02/10 05:46:42;;;;;;;10.13;6.50;;;7.00;99.90;;;;;;5118214;28;20460;-76
2022/02/10 05:49:48;;;;;;;14.27;6.70;;;7.00;99.90;;;;;;5124215;28;20523;-76
2022/02/10 05:55:28;;;;;;;7.60;5.70;;;7.00;99.90;;;;;;5067626;28;21074;-76
2022/02/10 05:58:04;;;;;;;12.20;6.70;;;7.00;99.90;;;;;;5111117;28;20490;-76
2022/02/10 06:53:35;;;;;;;10.67;7.20;;;6.90;99.90;;;;;;5081911;28;20470;-73
2022/02/10 07:15:57;;;;;;;8.00;5.50;;;6.90;99.90;;;;;;5086387;28;20460;-74
2022/02/10 07:44:27;;;;;;;8.63;6.10;;;6.90;99.90;;;;;;5092165;28;20577;-76
2022/02/10 07:47:03;;;;;;;6.80;5.60;;;6.90;99.90;;;;;;5086550;28;20492;-75
2022/02/10 07:55:29;;;;;;;6.90;5.20;;;6.90;99.90;;;;;;5109099;27;20573;-74
2022/02/10 07:58:17;;;;;;;6.53;5.53;;;6.90;99.90;;;;;;5116840;28;20492;-74
2022/02/10 08:04:13;;;;;;;8.97;5.63;;;6.90;99.90;;;;;;5109112;28;21031;-76
2022/02/10 08:26:13;;;;;;;7.40;4.77;;;7.00;99.90;;;;;;5107070;28;20460;-74
2022/02/10 08:27:35;;;;;;;6.43;4.60;;;7.00;99.90;;;;;;5107367;28;20468;-74
2022/02/10 08:49:43;;;;;;;5.50;4.90;;;7.00;99.90;;;;;;5110557;27;20461;-75
2022/02/10 08:49:56;;;;;;;4.63;4.10;;;7.10;99.90;;;;;;5110566;28;20459;-75
2022/02/10 08:55:25;;;;;;;8.10;5.30;;;7.10;99.90;;;;;;5109043;28;20467;-76
2022/02/10 09:01:10;;;;;;;8.13;5.60;;;7.10;99.90;;;;;;5107023;28;20608;-76
2022/02/10 09:03:50;;;;;;;6.73;4.90;;;7.20;99.90;;;;;;5110447;28;20475;-74
2022/02/10 09:06:27;;;;;;;6.47;4.40;;;7.20;99.90;;;;;;5098468;28;20461;-75
2022/02/10 09:50:11;;;;;;;9.20;6.97;;;7.40;99.90;;;;;;5106669;28;20468;-76
2022/02/10 09:57:50;;;;;;;10.67;7.53;;;7.40;99.90;;;;;;5051581;28;20503;-75
2022/02/10 10:00:36;;;;;;;9.40;7.20;;;7.40;99.90;;;;;;5107065;28;20466;-75
2022/02/10 10:03:12;;;;;;;10.33;7.57;;;7.40;99.90;;;;;;5107986;28;20996;-76
2022/02/10 10:05:54;;;;;;;11.77;8.70;;;7.40;99.90;;;;;;5107261;28;20496;-75
2022/02/10 10:08:37;;;;;;;10.03;7.67;;;7.40;99.90;;;;;;5107725;28;20542;-75
2022/02/10 10:11:57;;;;;;;12.13;8.33;;;7.30;99.90;;;;;;5106995;28;20526;-75
2022/02/10 10:14:31;;;;;;;9.33;6.43;;;7.30;99.90;;;;;;5107387;28;20479;-76
2022/02/10 10:17:22;;;;;;;11.87;7.47;;;7.30;99.90;;;;;;5108014;28;20455;-76
2022/02/10 10:20:12;;;;;;;9.73;7.60;;;7.30;99.90;;;;;;5106322;28;20532;-75
2022/02/10 10:51:16;;;;;;;8.07;6.53;;;7.70;99.90;;;;;;5093403;28;20490;-74
2022/02/10 10:53:55;;;;;;;9.23;6.63;;;7.70;99.90;;;;;;5094237;28;20472;-75
2022/02/10 10:56:28;;;;;;;8.70;6.63;;;7.70;99.90;;;;;;5096408;28;20571;-76
2022/02/10 10:59:14;;;;;;;8.80;7.53;;;7.70;99.90;;;;;;5091543;28;20544;-76
2022/02/10 11:42:35;;;;;;;10.17;4.83;;;8.00;99.90;;;;;;5088290;28;20492;-75
2022/02/10 12:42:11;;;;;;;7.73;3.23;;;10.30;99.90;;;;;;5076199;28;20483;-78
2022/02/10 13:48:24;;;;;;;5.90;2.37;;;10.40;99.90;;;;;;5088989;28;20460;-80
2022/02/10 14:10:44;;;;;;;4.03;1.67;;;11.40;99.90;;;;;;5083060;28;20601;-76
2022/02/10 14:13:21;;;;;;;7.67;2.27;;;11.10;99.90;;;;;;5092381;28;20539;-78
2022/02/10 14:18:35;;;;;;;5.20;1.80;;;10.30;99.90;;;;;;5082448;28;20522;-76
2022/02/10 14:21:09;;;;;;;9.33;2.17;;;10.20;99.90;;;;;;5090941;28;20544;-77
2022/02/10 14:26:43;;;;;;;4.53;1.93;;;9.80;99.90;;;;;;5092908;28;20452;-77
2022/02/10 14:29:13;;;;;;;4.80;1.80;;;9.60;99.90;;;;;;5089907;28;20461;-75
2022/02/10 14:31:45;;;;;;;7.37;1.70;;;9.40;99.90;;;;;;5091234;28;20483;-74
2022/02/10 14:34:21;;;;;;;7.13;2.07;;;9.20;99.90;;;;;;5091495;28;20460;-75
2022/02/10 14:36:51;;;;;;;8.40;2.03;;;9.10;99.90;;;;;;5088030;28;20479;-75
2022/02/10 14:39:40;;;;;;;3.27;1.50;;;9.00;99.90;;;;;;5084847;28;20455;-74
2022/02/10 14:42:39;;;;;;;4.00;1.70;;;8.90;99.90;;;;;;5090238;28;20495;-75
2022/02/10 15:20:48;;;;;;;3.30;2.00;;;7.00;99.90;;;;;;5069855;28;20507;-75
2022/02/10 15:47:23;;;;;;;4.13;2.10;;;6.80;99.90;;;;;;5086199;28;20469;-75
2022/02/10 15:50:04;;;;;;;4.90;2.00;;;6.80;99.90;;;;;;5091162;28;21136;-75
2022/02/10 15:53:03;;;;;;;2.90;1.90;;;6.80;99.90;;;;;;5089783;28;20466;-75
2022/02/10 16:16:15;;;;;;;3.50;2.30;;;6.70;99.90;;;;;;5081557;28;20499;-76
2022/02/10 16:18:30;;;;;;;3.60;2.27;;;6.70;99.90;;;;;;5092900;28;20552;-74
2022/02/10 16:20:59;;;;;;;4.27;2.53;;;6.70;99.90;;;;;;5091075;28;20486;-75
2022/02/10 16:23:30;;;;;;;8.30;2.50;;;6.70;99.90;;;;;;5089888;28;20552;-76
2022/02/10 16:26:10;;;;;;;2.73;2.40;;;6.60;99.90;;;;;;5090277;28;20484;-74
2022/02/10 16:28:41;;;;;;;4.90;2.70;;;6.50;99.90;;;;;;5087018;28;20497;-76
2022/02/10 16:31:11;;;;;;;5.50;2.70;;;6.60;99.90;;;;;;5089225;28;20494;-75
2022/02/10 16:33:44;;;;;;;5.50;3.13;;;6.50;99.90;;;;;;5092466;28;20507;-75
2022/02/10 16:36:17;;;;;;;5.03;2.73;;;6.50;99.90;;;;;;5093904;28;20457;-76
2022/02/10 16:38:52;;;;;;;5.90;2.77;;;6.50;99.90;;;;;;5093982;28;20463;-75
2022/02/10 16:41:28;;;;;;;5.27;2.80;;;6.40;99.90;;;;;;5094759;28;20488;-75
2022/02/10 16:44:01;;;;;;;4.80;2.40;;;6.40;99.90;;;;;;5089997;28;20471;-75
2022/02/10 16:46:34;;;;;;;7.90;2.60;;;6.40;99.90;;;;;;5097544;28;20498;-74
2022/02/10 16:49:07;;;;;;;3.73;2.20;;;6.40;99.90;;;;;;5094169;28;20459;-74
2022/02/10 16:51:44;;;;;;;3.90;2.50;;;6.30;99.90;;;;;;5091421;28;20896;-75
2022/02/10 16:54:23;;;;;;;4.50;2.50;;;6.40;99.90;;;;;;5090016;28;20464;-75
2022/02/10 16:57:05;;;;;;;5.33;2.67;;;6.30;99.90;;;;;;5086875;28;20481;-76
2022/02/10 16:59:46;;;;;;;6.10;3.07;;;6.40;99.90;;;;;;5087069;28;20482;-75
2022/02/10 17:14:09;;;;;;;4.80;2.60;;;6.30;99.90;;;;;;5089733;27;21432;-77
2022/02/10 17:19:35;;;;;;;4.50;2.97;;;6.20;99.90;;;;;;5093392;28;20447;-76
2022/02/10 17:27:53;;;;;;;6.17;2.60;;;6.20;99.90;;;;;;5078502;28;20528;-77
2022/02/10 17:31:08;;;;;;;9.00;2.53;;;6.20;99.90;;;;;;5093789;28;20574;-79
2022/02/10 17:33:53;;;;;;;3.97;2.40;;;6.20;99.90;;;;;;5094647;28;20498;-80
2022/02/10 17:36:31;;;;;;;6.20;2.50;;;6.20;99.90;;;;;;5093657;28;20469;-76
2022/02/10 17:42:05;;;;;;;5.33;2.47;;;6.10;99.90;;;;;;5087495;28;20504;-76
2022/02/10 17:44:39;;;;;;;6.60;2.80;;;6.10;99.90;;;;;;5089470;28;20494;-76
2022/02/10 17:52:56;;;;;;;8.83;2.60;;;6.10;99.90;;;;;;5095453;28;20472;-75
2022/02/10 17:55:24;;;;;;;8.70;3.13;;;6.10;99.90;;;;;;5090631;28;20479;-76
2022/02/10 17:57:52;;;;;;;10.80;2.80;;;6.00;99.90;;;;;;5083251;28;20575;-75
2022/02/10 18:00:23;;;;;;;7.17;2.40;;;6.00;99.90;;;;;;5085185;28;20459;-76
2022/02/10 18:02:59;;;;;;;7.37;2.60;;;6.10;99.90;;;;;;5087007;28;20460;-75
2022/02/10 18:05:58;;;;;;;4.93;2.23;;;6.00;99.90;;;;;;5090737;28;20544;-76
2022/02/10 18:08:26;;;;;;;8.93;3.17;;;6.00;99.90;;;;;;5090043;28;20456;-74
2022/02/10 18:13:48;;;;;;;9.53;2.60;;;6.00;99.90;;;;;;5071815;28;20530;-75
2022/02/10 18:16:23;;;;;;;11.27;3.67;;;6.00;99.90;;;;;;5094687;28;20474;-76
2022/02/10 18:18:57;;;;;;;4.63;2.73;;;6.10;99.90;;;;;;5095997;28;20899;-76
2022/02/10 18:21:55;;;;;;;10.60;3.33;;;6.10;99.90;;;;;;5095364;28;20492;-76
2022/02/10 18:27:31;;;;;;;8.30;3.00;;;6.00;99.90;;;;;;5092501;28;20542;-76
2022/02/10 19:09:26;;;;;;;7.90;2.43;;;5.70;99.90;;;;;;5110947;27;20466;-79
2022/02/10 19:12:00;;;;;;;6.23;2.40;;;5.70;99.90;;;;;;5114256;28;20512;-85
2022/02/10 19:14:31;;;;;;;5.70;2.33;;;5.70;99.90;;;;;;5114560;28;20458;-78
2022/02/10 19:17:03;;;;;;;5.97;2.43;;;5.70;99.90;;;;;;5120499;28;20905;-79
2022/02/10 19:19:34;;;;;;;5.07;2.20;;;5.70;99.90;;;;;;5116782;28;20483;-78
2022/02/10 19:22:02;;;;;;;3.90;2.00;;;5.70;99.90;;;;;;5107511;28;20481;-78
2022/02/10 19:24:31;;;;;;;8.07;2.60;;;5.80;99.90;;;;;;5105508;28;20463;-76
2022/02/10 19:27:02;;;;;;;3.53;2.17;;;5.70;99.90;;;;;;5103790;28;20487;-80
2022/02/10 19:29:31;;;;;;;8.70;2.80;;;5.70;99.90;;;;;;5104475;28;20457;-75
2022/02/10 19:32:05;;;;;;;5.70;2.37;;;5.70;99.90;;;;;;5098084;28;20486;-77
2022/02/10 19:34:35;;;;;;;5.70;2.43;;;5.60;99.90;;;;;;5098121;28;20464;-82
2022/02/10 19:37:21;;;;;;;5.07;2.33;;;5.60;99.90;;;;;;5103892;28;20469;-78
2022/02/10 19:39:55;;;;;;;4.13;2.57;;;5.60;99.90;;;;;;5100953;28;20485;-76
2022/02/10 19:42:26;;;;;;;6.37;2.27;;;5.60;99.90;;;;;;5103016;28;20494;-77
2022/02/10 19:44:57;;;;;;;6.23;3.10;;;5.60;99.90;;;;;;5101251;28;20464;-81
2022/02/10 19:47:28;;;;;;;4.47;2.70;;;5.50;99.90;;;;;;5103648;28;20449;-80
2022/02/10 19:49:57;;;;;;;5.20;2.50;;;5.50;99.90;;;;;;5107702;28;20457;-76
2022/02/10 19:52:26;;;;;;;6.57;2.57;;;5.50;99.90;;;;;;5100748;28;20566;-79
2022/02/10 19:55:00;;;;;;;4.70;2.90;;;5.50;99.90;;;;;;5097102;28;20472;-79
2022/02/10 19:57:29;;;;;;;3.73;2.20;;;5.50;99.90;;;;;;5094226;28;20525;-78
2022/02/10 19:59:59;;;;;;;3.87;2.80;;;5.50;99.90;;;;;;5093285;28;20467;-76
2022/02/10 20:02:29;;;;;;;6.80;2.60;;;5.50;99.90;;;;;;5084718;28;20499;-79
2022/02/10 20:05:02;;;;;;;5.43;2.63;;;5.50;99.90;;;;;;5091998;28;20488;-77
2022/02/10 20:07:36;;;;;;;6.43;2.80;;;5.40;99.90;;;;;;5096664;28;20452;-77
2022/02/10 20:10:12;;;;;;;4.93;2.77;;;5.40;99.90;;;;;;5101348;28;20469;-75
2022/02/10 20:12:44;;;;;;;3.97;2.53;;;5.40;99.90;;;;;;5098817;28;20519;-79
2022/02/10 20:15:12;;;;;;;4.83;2.83;;;5.40;99.90;;;;;;5100138;28;20481;-78
2022/02/10 20:17:42;;;;;;;6.37;2.83;;;5.40;99.90;;;;;;5107350;28;20685;-77
2022/02/10 20:20:12;;;;;;;11.37;4.70;;;5.40;99.90;;;;;;5102025;28;20498;-78
2022/02/10 20:22:43;;;;;;;3.43;3.10;;;5.40;99.90;;;;;;5102692;28;20476;-77
2022/02/10 20:25:32;;;;;;;6.43;2.60;;;5.40;99.90;;;;;;5096031;28;20934;-78
2022/02/10 20:28:00;;;;;;;7.33;2.83;;;5.40;99.90;;;;;;5094128;28;20476;-78
2022/02/10 20:30:31;;;;;;;5.77;2.77;;;5.40;99.90;;;;;;5075498;27;20509;-79
2022/02/10 20:32:59;;;;;;;6.77;3.00;;;5.40;99.90;;;;;;5073243;28;20621;-80
2022/02/10 20:35:27;;;;;;;5.90;3.60;;;5.40;99.90;;;;;;5063320;28;20557;-77
2022/02/10 20:38:00;;;;;;;4.80;2.90;;;5.40;99.90;;;;;;5068151;28;20464;-79
2022/02/10 20:40:33;;;;;;;9.23;2.67;;;5.40;99.90;;;;;;5067264;28;20495;-78
2022/02/10 20:43:08;;;;;;;6.10;2.70;;;5.40;99.90;;;;;;5068830;28;20487;-78
2022/02/10 20:45:37;;;;;;;9.70;3.50;;;5.40;99.90;;;;;;5066244;28;20485;-78
2022/02/10 20:48:06;;;;;;;9.73;3.77;;;5.30;99.90;;;;;;5073418;28;20521;-79
2022/02/10 20:50:35;;;;;;;7.13;3.30;;;5.30;99.90;;;;;;5065728;28;20499;-80
2022/02/10 20:53:05;;;;;;;6.90;2.50;;;5.30;99.90;;;;;;5075110;28;20462;-80
2022/02/10 20:55:33;;;;;;;4.70;2.70;;;5.20;99.90;;;;;;5067219;28;20497;-78
2022/02/10 20:58:01;;;;;;;6.27;2.73;;;5.30;99.90;;;;;;5070426;28;20506;-81
2022/02/10 21:00:32;;;;;;;6.30;3.07;;;5.30;99.90;;;;;;5065759;28;20498;-79
2022/02/10 21:03:00;;;;;;;7.17;3.27;;;5.30;99.90;;;;;;5064246;28;20516;-79
2022/02/10 21:05:34;;;;;;;7.80;2.80;;;5.20;99.90;;;;;;5060945;28;20520;-75
2022/02/10 21:08:10;;;;;;;6.40;2.40;;;5.20;99.90;;;;;;5065924;28;20480;-76
2022/02/10 21:10:39;;;;;;;9.33;2.83;;;5.20;99.90;;;;;;5059779;28;20481;-76
2022/02/10 21:13:09;;;;;;;7.83;3.07;;;5.20;99.90;;;;;;5053898;28;20455;-76
2022/02/10 21:15:43;;;;;;;6.80;3.07;;;5.20;99.90;;;;;;5053089;28;20489;-76
2022/02/10 21:18:13;;;;;;;7.30;3.50;;;5.20;99.90;;;;;;5053363;28;20528;-77
2022/02/10 21:20:46;;;;;;;5.03;2.70;;;5.20;99.90;;;;;;5058008;28;20479;-77
2022/02/10 21:23:20;;;;;;;7.73;2.90;;;5.20;99.90;;;;;;5061758;28;20478;-76
2022/02/10 21:25:55;;;;;;;4.60;3.07;;;5.10;99.90;;;;;;5059752;28;20479;-79
2022/02/10 21:28:28;;;;;;;5.93;3.10;;;5.10;99.90;;;;;;5064051;28;20500;-77
2022/02/10 21:31:01;;;;;;;6.53;3.40;;;5.10;99.90;;;;;;5060442;28;20486;-77
2022/02/10 21:33:42;;;;;;;6.00;2.97;;;5.10;99.90;;;;;;5060598;28;20627;-78
2022/02/10 21:39:06;;;;;;;5.60;3.27;;;5.10;99.90;;;;;;5063594;28;20540;-77
2022/02/10 21:47:42;;;;;;;6.13;2.53;;;5.00;99.90;;;;;;5062261;28;20462;-77
2022/02/10 22:04:34;;;;;;;9.10;3.20;;;5.00;99.90;;;;;;5066517;28;20489;-77
2022/02/10 22:09:58;;;;;;;4.17;2.60;;;5.00;99.90;;;;;;5067530;28;20493;-77
2022/02/10 22:20:48;;;;;;;6.07;2.50;;;5.00;99.90;;;;;;5071068;28;20516;-77
2022/02/10 22:23:27;;;;;;;9.93;2.83;;;5.00;99.90;;;;;;5064006;28;20479;-79
2022/02/10 22:26:00;;;;;;;10.63;2.50;;;5.00;99.90;;;;;;5059354;28;20935;-78
2022/02/10 22:28:36;;;;;;;4.53;2.50;;;5.00;99.90;;;;;;5075522;28;20452;-78
2022/02/10 22:31:22;;;;;;;5.03;2.73;;;4.90;99.90;;;;;;5064353;28;20554;-78
2022/02/10 22:34:04;;;;;;;7.47;2.90;;;4.90;99.90;;;;;;5069836;28;20538;-77
2022/02/10 22:36:36;;;;;;;6.53;2.20;;;4.90;99.90;;;;;;5066390;28;20470;-78
2022/02/10 22:39:08;;;;;;;7.83;3.70;;;4.90;99.90;;;;;;5068262;28;20466;-78
2022/02/10 22:41:39;;;;;;;8.83;3.07;;;4.90;99.90;;;;;;5068002;28;20478;-77
2022/02/10 22:44:09;;;;;;;3.90;2.50;;;4.90;99.90;;;;;;5079410;28;21105;-78
2022/02/10 22:46:40;;;;;;;6.83;3.07;;;4.90;99.90;;;;;;5067844;28;20494;-78
2022/02/10 22:49:10;;;;;;;4.80;2.10;;;4.90;99.90;;;;;;5066198;28;20491;-79
2022/02/10 22:51:39;;;;;;;6.47;2.60;;;4.90;99.90;;;;;;5067145;28;20483;-77
2022/02/10 22:54:13;;;;;;;4.60;2.73;;;4.90;99.90;;;;;;5064176;28;20459;-78
2022/02/10 22:56:43;;;;;;;7.30;2.97;;;4.90;99.90;;;;;;5066514;28;20489;-77
2022/02/10 22:59:11;;;;;;;5.23;2.70;;;4.90;99.90;;;;;;5070049;28;20522;-79
2022/02/10 23:01:40;;;;;;;3.80;2.70;;;4.90;99.90;;;;;;5067085;28;20477;-78
2022/02/10 23:04:09;;;;;;;4.30;2.50;;;4.90;99.90;;;;;;5064641;28;20473;-77
2022/02/10 23:06:40;;;;;;;7.63;3.10;;;4.90;99.90;;;;;;5069036;28;20462;-77
2022/02/10 23:09:33;;;;;;;5.77;2.43;;;4.90;99.90;;;;;;5065966;28;20468;-77
2022/02/10 23:12:03;;;;;;;10.43;2.80;;;4.90;99.90;;;;;;5064907;28;20486;-78
2022/02/10 23:14:33;;;;;;;6.13;2.77;;;4.90;99.90;;;;;;5066120;28;20516;-77
2022/02/10 23:17:05;;;;;;;6.90;2.87;;;4.80;99.90;;;;;;5063475;28;20460;-78
2022/02/10 23:19:34;;;;;;;4.73;2.70;;;4.80;99.90;;;;;;5069943;28;20465;-78
2022/02/10 23:22:03;;;;;;;10.40;3.60;;;4.80;99.90;;;;;;5070320;28;20597;-78
2022/02/10 23:24:32;;;;;;;5.57;3.00;;;4.80;99.90;;;;;;5069258;28;21937;-78
2022/02/10 23:27:04;;;;;;;5.60;2.80;;;4.70;99.90;;;;;;5066642;28;20468;-77
2022/02/10 23:29:32;;;;;;;13.40;3.20;;;4.80;99.90;;;;;;5067357;28;20528;-77
2022/02/10 23:32:03;;;;;;;6.90;2.67;;;4.80;99.90;;;;;;5069634;28;20560;-77
2022/02/10 23:34:33;;;;;;;7.23;3.03;;;4.80;99.90;;;;;;5065998;28;20817;-77
2022/02/10 23:37:00;;;;;;;6.10;3.23;;;4.80;99.90;;;;;;5068017;28;20707;-79
2022/02/10 23:39:32;;;;;;;8.33;3.73;;;4.90;99.90;;;;;;5069622;28;20457;-78
2022/02/10 23:42:09;;;;;;;7.37;2.80;;;4.80;99.90;;;;;;5068253;28;20525;-78
2022/02/10 23:44:39;;;;;;;8.90;3.23;;;4.90;99.90;;;;;;5067101;28;20475;-77
2022/02/10 23:47:09;;;;;;;7.50;3.50;;;4.90;99.90;;;;;;5067792;28;20457;-77
2022/02/10 23:49:39;;;;;;;4.37;2.30;;;4.80;99.90;;;;;;5066025;28;20460;-78
2022/02/10 23:52:09;;;;;;;9.50;3.43;;;4.80;99.90;;;;;;5068866;28;20483;-78
2022/02/10 23:54:41;;;;;;;5.70;2.80;;;4.80;99.90;;;;;;5067267;28;20560;-76
2022/02/10 23:57:16;;;;;;;5.70;2.83;;;4.80;99.90;;;;;;5070696;28;20558;-77
